Archival Weather

Aeroparque Jorge Newbery

Aeroparque Jorge Newbery, Argentina (SABE)

Report from: Saturday, May 14, 2022 8:00 PM -03
Current time: Sunday, June 26, 2022 3:08 PM -03

Current weather
Weather history
Weather forecast

Temperature16.0°C (60.8°F)
Dew point3.0°C (37.4°F)
Winds 4 kts (2.1 m/s, 4.6 mph) Vrb
Winds variableWinds variable from East-Southeast (110°) to West-Southwest (240°)
Clouds Sky clear
Altimeter30.09 in.Hg (1019 mB)
Relative humidity42 %
Density altitude38 ft. (12 m)
Remarks Ceiling and visibility OK
Corrected report
No significant changes expected in the next two hours
Flight conditions Visual Meteorological Conditions
Raw dataCOR SABE 142300Z 18004KT 240V110 CAVOK 16/03 Q1019 NOSIG
An error has occurred. This application may no longer respond until reloaded. Reload 🗙